sensor_id;sensor_type;location;lat;lon;timestamp;pressure;altitude;pressure_sealevel;temperature;humidity
7480;BME280;3781;42.272;22.658;2022-07-19T00:00:00;95218.13;;;15.10;82.13
7480;BME280;3781;42.272;22.658;2022-07-19T00:02:29;95189.97;;;14.95;82.46
7480;BME280;3781;42.272;22.658;2022-07-19T00:04:56;95204.56;;;14.97;83.89
7480;BME280;3781;42.272;22.658;2022-07-19T00:07:23;95216.41;;;14.92;85.14
7480;BME280;3781;42.272;22.658;2022-07-19T00:09:50;95198.09;;;14.74;85.73
7480;BME280;3781;42.272;22.658;2022-07-19T00:12:17;95215.38;;;14.85;86.16
7480;BME280;3781;42.272;22.658;2022-07-19T00:14:44;95178.63;;;14.59;87.01
7480;BME280;3781;42.272;22.658;2022-07-19T00:17:12;95183.50;;;14.72;85.71
7480;BME280;3781;42.272;22.658;2022-07-19T00:19:39;95186.72;;;14.83;84.42
7480;BME280;3781;42.272;22.658;2022-07-19T00:22:06;95215.09;;;15.33;81.65
7480;BME280;3781;42.272;22.658;2022-07-19T00:24:33;95173.63;;;15.10;81.31
7480;BME280;3781;42.272;22.658;2022-07-19T00:27:00;95179.06;;;15.27;79.92
7480;BME280;3781;42.272;22.658;2022-07-19T00:29:27;95207.28;;;15.68;77.83
7480;BME280;3781;42.272;22.658;2022-07-19T00:31:53;95193.44;;;15.58;77.64
7480;BME280;3781;42.272;22.658;2022-07-19T00:34:22;95206.97;;;15.89;75.77
7480;BME280;3781;42.272;22.658;2022-07-19T00:36:48;95205.41;;;15.78;76.17
7480;BME280;3781;42.272;22.658;2022-07-19T00:39:15;95203.72;;;15.95;75.17
7480;BME280;3781;42.272;22.658;2022-07-19T00:41:43;95113.50;;;15.46;74.76
7480;BME280;3781;42.272;22.658;2022-07-19T00:44:11;95189.50;;;15.97;74.27
7480;BME280;3781;42.272;22.658;2022-07-19T00:46:38;95205.94;;;16.07;74.38
7480;BME280;3781;42.272;22.658;2022-07-19T00:49:05;95201.22;;;15.85;75.87
7480;BME280;3781;42.272;22.658;2022-07-19T00:51:37;95207.03;;;15.79;76.07
7480;BME280;3781;42.272;22.658;2022-07-19T00:54:06;95185.25;;;15.96;73.95
7480;BME280;3781;42.272;22.658;2022-07-19T00:56:34;95118.56;;;15.65;71.79
7480;BME280;3781;42.272;22.658;2022-07-19T00:59:03;95200.41;;;16.10;71.78
7480;BME280;3781;42.272;22.658;2022-07-19T01:01:30;95212.13;;;15.98;72.15
7480;BME280;3781;42.272;22.658;2022-07-19T01:03:58;95213.94;;;15.80;73.24
7480;BME280;3781;42.272;22.658;2022-07-19T01:06:24;95203.16;;;15.48;76.19
7480;BME280;3781;42.272;22.658;2022-07-19T01:08:53;95212.66;;;15.66;75.65
7480;BME280;3781;42.272;22.658;2022-07-19T01:11:20;95192.69;;;15.48;76.63
7480;BME280;3781;42.272;22.658;2022-07-19T01:13:47;95170.50;;;15.25;77.92
7480;BME280;3781;42.272;22.658;2022-07-19T01:16:14;95143.34;;;15.08;78.79
7480;BME280;3781;42.272;22.658;2022-07-19T01:18:41;95195.75;;;15.16;81.73
7480;BME280;3781;42.272;22.658;2022-07-19T01:21:18;95170.00;;;14.76;83.24
7480;BME280;3781;42.272;22.658;2022-07-19T01:23:45;95195.63;;;14.90;83.88
7480;BME280;3781;42.272;22.658;2022-07-19T01:26:12;95204.22;;;14.83;86.28
7480;BME280;3781;42.272;22.658;2022-07-19T01:28:39;95179.97;;;14.63;87.52
7480;BME280;3781;42.272;22.658;2022-07-19T01:31:06;95203.91;;;14.86;86.91
7480;BME280;3781;42.272;22.658;2022-07-19T01:33:38;95191.97;;;14.83;85.67
7480;BME280;3781;42.272;22.658;2022-07-19T01:36:05;95201.78;;;14.99;84.07
7480;BME280;3781;42.272;22.658;2022-07-19T01:38:34;95192.63;;;15.13;82.67
7480;BME280;3781;42.272;22.658;2022-07-19T01:41:01;95201.44;;;15.11;82.26
7480;BME280;3781;42.272;22.658;2022-07-19T01:43:28;95170.56;;;14.70;83.92
7480;BME280;3781;42.272;22.658;2022-07-19T01:45:55;95179.38;;;14.69;85.43
7480;BME280;3781;42.272;22.658;2022-07-19T01:48:21;95206.53;;;14.86;85.12
7480;BME280;3781;42.272;22.658;2022-07-19T01:50:48;95205.63;;;14.77;86.01
7480;BME280;3781;42.272;22.658;2022-07-19T01:53:15;95201.66;;;14.73;88.92
7480;BME280;3781;42.272;22.658;2022-07-19T01:55:43;95189.78;;;14.52;91.40
7480;BME280;3781;42.272;22.658;2022-07-19T01:58:10;95189.13;;;14.40;92.67
7480;BME280;3781;42.272;22.658;2022-07-19T02:00:37;95208.47;;;14.57;93.67
7480;BME280;3781;42.272;22.658;2022-07-19T02:03:04;95199.56;;;14.50;94.30
7480;BME280;3781;42.272;22.658;2022-07-19T02:05:30;95209.44;;;14.56;96.66
7480;BME280;3781;42.272;22.658;2022-07-19T02:07:57;95177.34;;;14.07;96.07
7480;BME280;3781;42.272;22.658;2022-07-19T02:10:24;95218.88;;;14.10;97.65
7480;BME280;3781;42.272;22.658;2022-07-19T02:12:52;95203.25;;;13.91;98.86
7480;BME280;3781;42.272;22.658;2022-07-19T02:15:20;95224.25;;;13.99;100.00
7480;BME280;3781;42.272;22.658;2022-07-19T02:17:46;95229.31;;;14.01;100.00
7480;BME280;3781;42.272;22.658;2022-07-19T02:20:13;95217.53;;;13.97;99.69
7480;BME280;3781;42.272;22.658;2022-07-19T02:22:41;95206.13;;;13.98;98.64
7480;BME280;3781;42.272;22.658;2022-07-19T02:25:08;95231.41;;;14.07;100.00
7480;BME280;3781;42.272;22.658;2022-07-19T02:27:35;95174.69;;;13.61;100.00
7480;BME280;3781;42.272;22.658;2022-07-19T02:30:04;95233.19;;;13.97;100.00
7480;BME280;3781;42.272;22.658;2022-07-19T02:32:31;95232.91;;;13.90;100.00
7480;BME280;3781;42.272;22.658;2022-07-19T02:34:58;95182.94;;;13.37;100.00
7480;BME280;3781;42.272;22.658;2022-07-19T02:37:25;95236.78;;;13.48;100.00
7480;BME280;3781;42.272;22.658;2022-07-19T02:39:52;95174.53;;;13.05;100.00
7480;BME280;3781;42.272;22.658;2022-07-19T02:42:19;95214.66;;;13.42;100.00
7480;BME280;3781;42.272;22.658;2022-07-19T02:44:45;95234.84;;;13.59;100.00
7480;BME280;3781;42.272;22.658;2022-07-19T02:47:14;95238.44;;;13.58;100.00
7480;BME280;3781;42.272;22.658;2022-07-19T02:49:41;95214.25;;;13.37;100.00
7480;BME280;3781;42.272;22.658;2022-07-19T02:52:08;95213.13;;;13.40;100.00
7480;BME280;3781;42.272;22.658;2022-07-19T02:54:34;95220.16;;;13.58;100.00
7480;BME280;3781;42.272;22.658;2022-07-19T02:57:01;95215.63;;;13.51;100.00
7480;BME280;3781;42.272;22.658;2022-07-19T02:59:28;95072.22;;;12.54;100.00
7480;BME280;3781;42.272;22.658;2022-07-19T03:01:55;95240.34;;;13.56;100.00
7480;BME280;3781;42.272;22.658;2022-07-19T03:04:23;95206.69;;;13.34;100.00
7480;BME280;3781;42.272;22.658;2022-07-19T03:06:50;95239.28;;;13.59;100.00
7480;BME280;3781;42.272;22.658;2022-07-19T03:09:17;95245.84;;;13.53;100.00
7480;BME280;3781;42.272;22.658;2022-07-19T03:11:45;95187.44;;;13.16;100.00
7480;BME280;3781;42.272;22.658;2022-07-19T03:14:12;95151.06;;;13.05;100.00
7480;BME280;3781;42.272;22.658;2022-07-19T03:16:39;95243.66;;;13.58;100.00
7480;BME280;3781;42.272;22.658;2022-07-19T03:19:06;95216.19;;;13.54;100.00
7480;BME280;3781;42.272;22.658;2022-07-19T03:21:35;95192.28;;;13.49;100.00
7480;BME280;3781;42.272;22.658;2022-07-19T03:24:02;95195.31;;;13.54;100.00
7480;BME280;3781;42.272;22.658;2022-07-19T03:26:29;95221.13;;;13.67;100.00
7480;BME280;3781;42.272;22.658;2022-07-19T03:28:56;95257.13;;;13.83;100.00
7480;BME280;3781;42.272;22.658;2022-07-19T03:31:23;95263.59;;;13.79;100.00
7480;BME280;3781;42.272;22.658;2022-07-19T03:33:49;95243.91;;;13.55;100.00
7480;BME280;3781;42.272;22.658;2022-07-19T03:36:16;95262.47;;;13.81;100.00
7480;BME280;3781;42.272;22.658;2022-07-19T03:38:45;95265.47;;;13.77;100.00
7480;BME280;3781;42.272;22.658;2022-07-19T03:41:12;95269.75;;;13.78;100.00
7480;BME280;3781;42.272;22.658;2022-07-19T03:43:39;95258.75;;;13.84;100.00
7480;BME280;3781;42.272;22.658;2022-07-19T03:46:06;95231.13;;;13.43;100.00
7480;BME280;3781;42.272;22.658;2022-07-19T03:48:32;95248.97;;;13.38;100.00
7480;BME280;3781;42.272;22.658;2022-07-19T03:50:59;95271.69;;;13.56;100.00
7480;BME280;3781;42.272;22.658;2022-07-19T03:53:26;95234.97;;;13.48;100.00
7480;BME280;3781;42.272;22.658;2022-07-19T03:55:54;95253.28;;;13.68;100.00
7480;BME280;3781;42.272;22.658;2022-07-19T03:58:21;95235.97;;;13.67;100.00
7480;BME280;3781;42.272;22.658;2022-07-19T04:00:48;95237.19;;;13.82;100.00
7480;BME280;3781;42.272;22.658;2022-07-19T04:03:15;95276.34;;;14.20;100.00
7480;BME280;3781;42.272;22.658;2022-07-19T04:05:41;95179.22;;;13.69;100.00
7480;BME280;3781;42.272;22.658;2022-07-19T04:08:08;95287.06;;;14.46;100.00
7480;BME280;3781;42.272;22.658;2022-07-19T04:10:35;95252.41;;;14.34;100.00
7480;BME280;3781;42.272;22.658;2022-07-19T04:13:03;95272.31;;;14.45;100.00
7480;BME280;3781;42.272;22.658;2022-07-19T04:15:30;95293.59;;;14.69;100.00
7480;BME280;3781;42.272;22.658;2022-07-19T04:17:57;95290.81;;;14.80;100.00
7480;BME280;3781;42.272;22.658;2022-07-19T04:20:24;95284.75;;;14.79;100.00
7480;BME280;3781;42.272;22.658;2022-07-19T04:22:51;95297.22;;;14.95;100.00
7480;BME280;3781;42.272;22.658;2022-07-19T04:25:18;95246.97;;;14.64;99.17
7480;BME280;3781;42.272;22.658;2022-07-19T04:27:45;95297.03;;;15.06;100.00
7480;BME280;3781;42.272;22.658;2022-07-19T04:30:14;95287.84;;;15.02;99.67
7480;BME280;3781;42.272;22.658;2022-07-19T04:32:40;95278.00;;;15.14;99.60
7480;BME280;3781;42.272;22.658;2022-07-19T04:35:08;95298.00;;;15.32;100.00
7480;BME280;3781;42.272;22.658;2022-07-19T04:37:35;95277.03;;;15.42;95.94
7480;BME280;3781;42.272;22.658;2022-07-19T04:40:02;95298.50;;;15.90;94.43
7480;BME280;3781;42.272;22.658;2022-07-19T04:42:29;95255.44;;;15.93;90.23
7480;BME280;3781;42.272;22.658;2022-07-19T04:44:55;95298.66;;;16.67;84.72
7480;BME280;3781;42.272;22.658;2022-07-19T04:47:27;95295.47;;;16.81;86.05
7480;BME280;3781;42.272;22.658;2022-07-19T04:49:55;95280.28;;;16.93;85.18
7480;BME280;3781;42.272;22.658;2022-07-19T04:52:22;95310.81;;;17.35;80.00
7480;BME280;3781;42.272;22.658;2022-07-19T04:54:48;95295.19;;;17.60;76.21
7480;BME280;3781;42.272;22.658;2022-07-19T04:57:15;95306.94;;;17.97;72.65
7480;BME280;3781;42.272;22.658;2022-07-19T04:59:42;95158.66;;;17.10;72.63
7480;BME280;3781;42.272;22.658;2022-07-19T05:02:09;95286.22;;;17.94;74.30
7480;BME280;3781;42.272;22.658;2022-07-19T05:04:37;95316.56;;;18.55;70.14
7480;BME280;3781;42.272;22.658;2022-07-19T05:07:04;95310.38;;;19.11;67.21
7480;BME280;3781;42.272;22.658;2022-07-19T05:09:31;95325.19;;;20.28;63.43
7480;BME280;3781;42.272;22.658;2022-07-19T05:11:58;95323.56;;;21.01;59.11
7480;BME280;3781;42.272;22.658;2022-07-19T05:14:25;95328.84;;;21.01;58.07
7480;BME280;3781;42.272;22.658;2022-07-19T05:16:52;95326.88;;;21.62;55.95
7480;BME280;3781;42.272;22.658;2022-07-19T05:19:19;95329.03;;;22.02;55.15
7480;BME280;3781;42.272;22.658;2022-07-19T05:21:47;95314.06;;;22.30;54.17
7480;BME280;3781;42.272;22.658;2022-07-19T05:24:14;95292.25;;;22.71;52.01
7480;BME280;3781;42.272;22.658;2022-07-19T05:26:41;95331.63;;;22.52;51.53
7480;BME280;3781;42.272;22.658;2022-07-19T05:29:08;95318.53;;;21.44;55.60
7480;BME280;3781;42.272;22.658;2022-07-19T05:31:35;95324.94;;;20.60;58.57
7480;BME280;3781;42.272;22.658;2022-07-19T05:34:02;95320.97;;;20.11;60.13
7480;BME280;3781;42.272;22.658;2022-07-19T05:36:29;95311.91;;;19.52;61.24
7480;BME280;3781;42.272;22.658;2022-07-19T05:38:57;95250.97;;;19.08;62.45
7480;BME280;3781;42.272;22.658;2022-07-19T05:41:24;95307.56;;;19.20;63.25
7480;BME280;3781;42.272;22.658;2022-07-19T05:43:51;95319.56;;;19.15;62.10
7480;BME280;3781;42.272;22.658;2022-07-19T05:46:19;95311.69;;;19.07;63.59
7480;BME280;3781;42.272;22.658;2022-07-19T05:48:46;95318.75;;;19.14;62.37
7480;BME280;3781;42.272;22.658;2022-07-19T05:51:13;95309.25;;;18.97;62.75
7480;BME280;3781;42.272;22.658;2022-07-19T05:53:40;95283.31;;;18.62;65.15
7480;BME280;3781;42.272;22.658;2022-07-19T05:56:08;95313.38;;;18.83;66.77
7480;BME280;3781;42.272;22.658;2022-07-19T05:58:35;95309.63;;;18.70;64.38
7480;BME280;3781;42.272;22.658;2022-07-19T06:01:03;95318.13;;;19.04;64.84
7480;BME280;3781;42.272;22.658;2022-07-19T06:03:48;95315.81;;;19.01;63.42
7480;BME280;3781;42.272;22.658;2022-07-19T06:06:16;95314.47;;;19.13;63.57
7480;BME280;3781;42.272;22.658;2022-07-19T06:08:43;95316.72;;;19.32;63.42
7480;BME280;3781;42.272;22.658;2022-07-19T06:11:12;95311.13;;;19.43;63.94
7480;BME280;3781;42.272;22.658;2022-07-19T06:13:39;95279.47;;;19.05;66.18
7480;BME280;3781;42.272;22.658;2022-07-19T06:16:07;95315.66;;;19.58;62.78
7480;BME280;3781;42.272;22.658;2022-07-19T06:18:34;95260.03;;;19.52;65.64
7480;BME280;3781;42.272;22.658;2022-07-19T06:21:03;95298.28;;;20.02;65.23
7480;BME280;3781;42.272;22.658;2022-07-19T06:23:30;95306.75;;;20.20;61.70
7480;BME280;3781;42.272;22.658;2022-07-19T06:25:57;95289.53;;;20.32;62.45
7480;BME280;3781;42.272;22.658;2022-07-19T06:28:25;95278.75;;;20.42;63.15
7480;BME280;3781;42.272;22.658;2022-07-19T06:30:52;95282.69;;;20.60;59.59
7480;BME280;3781;42.272;22.658;2022-07-19T06:33:20;95294.91;;;20.61;60.73
7480;BME280;3781;42.272;22.658;2022-07-19T06:35:46;95303.03;;;21.12;58.89
7480;BME280;3781;42.272;22.658;2022-07-19T06:38:14;95288.00;;;21.27;59.63
7480;BME280;3781;42.272;22.658;2022-07-19T06:40:40;95268.22;;;21.23;60.03
7480;BME280;3781;42.272;22.658;2022-07-19T06:43:08;95299.91;;;21.23;58.47
7480;BME280;3781;42.272;22.658;2022-07-19T06:45:36;95299.13;;;21.22;57.95
7480;BME280;3781;42.272;22.658;2022-07-19T06:48:04;95239.78;;;20.95;57.70
7480;BME280;3781;42.272;22.658;2022-07-19T06:50:31;95276.50;;;21.34;57.89
7480;BME280;3781;42.272;22.658;2022-07-19T06:52:58;95279.69;;;21.59;56.86
7480;BME280;3781;42.272;22.658;2022-07-19T06:55:25;95293.47;;;21.90;58.98
7480;BME280;3781;42.272;22.658;2022-07-19T06:57:52;95295.41;;;22.17;55.97
7480;BME280;3781;42.272;22.658;2022-07-19T07:00:19;95295.78;;;22.14;53.16
7480;BME280;3781;42.272;22.658;2022-07-19T07:02:47;95287.47;;;22.17;54.64
7480;BME280;3781;42.272;22.658;2022-07-19T07:05:14;95291.78;;;22.18;55.06
7480;BME280;3781;42.272;22.658;2022-07-19T07:07:41;95291.78;;;22.18;56.44
7480;BME280;3781;42.272;22.658;2022-07-19T07:10:09;95280.81;;;22.21;55.76
7480;BME280;3781;42.272;22.658;2022-07-19T07:12:36;95266.41;;;22.51;55.57
7480;BME280;3781;42.272;22.658;2022-07-19T07:15:04;95279.94;;;22.84;54.64
7480;BME280;3781;42.272;22.658;2022-07-19T07:17:31;95283.91;;;22.95;54.28
7480;BME280;3781;42.272;22.658;2022-07-19T07:19:59;95278.00;;;23.27;49.80
7480;BME280;3781;42.272;22.658;2022-07-19T07:22:26;95281.56;;;23.41;50.12
7480;BME280;3781;42.272;22.658;2022-07-19T07:24:53;95280.41;;;23.22;52.58
7480;BME280;3781;42.272;22.658;2022-07-19T07:27:20;95231.72;;;22.95;51.14
7480;BME280;3781;42.272;22.658;2022-07-19T07:29:47;95254.38;;;23.32;52.02
7480;BME280;3781;42.272;22.658;2022-07-19T07:32:14;95280.66;;;23.61;52.59
7480;BME280;3781;42.272;22.658;2022-07-19T07:34:41;95250.75;;;23.87;52.41
7480;BME280;3781;42.272;22.658;2022-07-19T07:37:10;95281.94;;;24.39;49.33
7480;BME280;3781;42.272;22.658;2022-07-19T07:39:37;95283.75;;;24.45;46.66
7480;BME280;3781;42.272;22.658;2022-07-19T07:42:04;95281.56;;;23.81;49.51
7480;BME280;3781;42.272;22.658;2022-07-19T07:44:31;95177.16;;;23.01;49.95
7480;BME280;3781;42.272;22.658;2022-07-19T07:46:58;95280.75;;;23.81;51.51
7480;BME280;3781;42.272;22.658;2022-07-19T07:49:25;95275.97;;;24.24;50.77
7480;BME280;3781;42.272;22.658;2022-07-19T07:51:52;95258.03;;;24.45;49.42
7480;BME280;3781;42.272;22.658;2022-07-19T07:54:21;95259.69;;;24.53;46.57
7480;BME280;3781;42.272;22.658;2022-07-19T07:56:48;95260.88;;;24.18;46.13
7480;BME280;3781;42.272;22.658;2022-07-19T07:59:14;95254.75;;;24.37;49.60
7480;BME280;3781;42.272;22.658;2022-07-19T08:01:42;95263.34;;;24.71;50.14
7480;BME280;3781;42.272;22.658;2022-07-19T08:04:09;95268.06;;;24.96;48.13
7480;BME280;3781;42.272;22.658;2022-07-19T08:06:37;95268.06;;;25.15;47.97
7480;BME280;3781;42.272;22.658;2022-07-19T08:09:04;95270.72;;;25.09;45.39
7480;BME280;3781;42.272;22.658;2022-07-19T08:11:32;95248.25;;;24.85;47.76
7480;BME280;3781;42.272;22.658;2022-07-19T08:13:59;95261.69;;;25.23;45.26
7480;BME280;3781;42.272;22.658;2022-07-19T08:16:26;95247.34;;;25.30;45.70
7480;BME280;3781;42.272;22.658;2022-07-19T08:18:53;95242.47;;;25.14;45.88
7480;BME280;3781;42.272;22.658;2022-07-19T08:21:20;95268.63;;;25.43;43.62
7480;BME280;3781;42.272;22.658;2022-07-19T08:23:47;95236.34;;;25.20;44.91
7480;BME280;3781;42.272;22.658;2022-07-19T08:26:13;95259.53;;;25.77;45.12
7480;BME280;3781;42.272;22.658;2022-07-19T08:28:42;95256.78;;;25.84;45.23
7480;BME280;3781;42.272;22.658;2022-07-19T08:31:10;95250.59;;;26.34;44.63
7480;BME280;3781;42.272;22.658;2022-07-19T08:33:37;95233.63;;;25.91;42.39
7480;BME280;3781;42.272;22.658;2022-07-19T08:36:05;95216.81;;;25.97;43.13
7480;BME280;3781;42.272;22.658;2022-07-19T08:38:32;95247.69;;;26.42;41.86
7480;BME280;3781;42.272;22.658;2022-07-19T08:40:59;95228.19;;;26.48;42.09
7480;BME280;3781;42.272;22.658;2022-07-19T08:43:28;95237.22;;;26.72;42.50
7480;BME280;3781;42.272;22.658;2022-07-19T08:45:59;95225.78;;;26.65;40.06
7480;BME280;3781;42.272;22.658;2022-07-19T08:48:26;95224.28;;;27.00;37.38
7480;BME280;3781;42.272;22.658;2022-07-19T08:50:53;95247.06;;;27.39;39.54
7480;BME280;3781;42.272;22.658;2022-07-19T08:53:21;95243.38;;;27.40;39.60
7480;BME280;3781;42.272;22.658;2022-07-19T08:55:48;95237.75;;;27.66;38.65
7480;BME280;3781;42.272;22.658;2022-07-19T08:58:15;95243.66;;;28.46;34.49
7480;BME280;3781;42.272;22.658;2022-07-19T09:00:41;95188.88;;;28.66;34.27
7480;BME280;3781;42.272;22.658;2022-07-19T09:03:09;95233.44;;;28.84;34.51
7480;BME280;3781;42.272;22.658;2022-07-19T09:05:36;95237.13;;;29.06;36.96
7480;BME280;3781;42.272;22.658;2022-07-19T09:08:08;95229.53;;;29.61;35.45
7480;BME280;3781;42.272;22.658;2022-07-19T09:10:37;95238.94;;;30.15;36.07
7480;BME280;3781;42.272;22.658;2022-07-19T09:13:07;95238.84;;;30.66;35.04
7480;BME280;3781;42.272;22.658;2022-07-19T09:15:44;95241.13;;;30.91;34.07
7480;BME280;3781;42.272;22.658;2022-07-19T09:18:15;95234.75;;;31.30;33.41
7480;BME280;3781;42.272;22.658;2022-07-19T09:20:42;95219.84;;;31.77;32.50
7480;BME280;3781;42.272;22.658;2022-07-19T09:23:09;95215.16;;;33.33;29.19
7480;BME280;3781;42.272;22.658;2022-07-19T09:25:38;95224.72;;;33.14;29.94
7480;BME280;3781;42.272;22.658;2022-07-19T09:28:05;95218.00;;;33.53;29.68
7480;BME280;3781;42.272;22.658;2022-07-19T09:30:37;95226.00;;;32.21;30.57
7480;BME280;3781;42.272;22.658;2022-07-19T09:33:09;95223.69;;;31.43;32.91
7480;BME280;3781;42.272;22.658;2022-07-19T09:35:39;95218.84;;;31.83;31.37
7480;BME280;3781;42.272;22.658;2022-07-19T09:38:14;95227.28;;;31.70;30.31
7480;BME280;3781;42.272;22.658;2022-07-19T09:40:41;95203.19;;;32.24;33.11
7480;BME280;3781;42.272;22.658;2022-07-19T09:43:08;95215.16;;;31.30;31.78
7480;BME280;3781;42.272;22.658;2022-07-19T09:45:35;95215.59;;;32.51;27.20
7480;BME280;3781;42.272;22.658;2022-07-19T09:48:02;95215.63;;;32.88;29.74
7480;BME280;3781;42.272;22.658;2022-07-19T09:50:29;95181.78;;;33.34;29.41
7480;BME280;3781;42.272;22.658;2022-07-19T09:53:02;95199.31;;;33.98;27.32
7480;BME280;3781;42.272;22.658;2022-07-19T09:55:29;95206.16;;;33.59;28.85
7480;BME280;3781;42.272;22.658;2022-07-19T09:57:58;95188.63;;;34.19;28.97
7480;BME280;3781;42.272;22.658;2022-07-19T10:00:27;95202.75;;;35.21;28.03
7480;BME280;3781;42.272;22.658;2022-07-19T10:02:55;95203.19;;;35.69;28.68
7480;BME280;3781;42.272;22.658;2022-07-19T10:05:23;95209.19;;;35.40;26.21
7480;BME280;3781;42.272;22.658;2022-07-19T10:07:50;95204.75;;;34.08;28.61
7480;BME280;3781;42.272;22.658;2022-07-19T10:10:21;95201.13;;;34.60;28.86
7480;BME280;3781;42.272;22.658;2022-07-19T10:12:48;95197.28;;;35.41;29.49
7480;BME280;3781;42.272;22.658;2022-07-19T10:15:17;95197.25;;;35.62;28.09
7480;BME280;3781;42.272;22.658;2022-07-19T10:17:50;95203.81;;;35.15;26.86
7480;BME280;3781;42.272;22.658;2022-07-19T10:20:24;95195.91;;;34.28;27.52
7480;BME280;3781;42.272;22.658;2022-07-19T10:22:51;95178.56;;;33.42;27.59
7480;BME280;3781;42.272;22.658;2022-07-19T10:25:20;95163.97;;;30.81;30.83
7480;BME280;3781;42.272;22.658;2022-07-19T10:27:52;95158.94;;;29.90;32.10
7480;BME280;3781;42.272;22.658;2022-07-19T10:30:26;95187.88;;;30.99;29.85
7480;BME280;3781;42.272;22.658;2022-07-19T10:32:55;95180.38;;;32.53;31.60
7480;BME280;3781;42.272;22.658;2022-07-19T10:35:23;95180.84;;;33.13;28.12
7480;BME280;3781;42.272;22.658;2022-07-19T10:37:52;95184.69;;;33.79;27.46
7480;BME280;3781;42.272;22.658;2022-07-19T10:40:41;95185.41;;;33.13;26.35
7480;BME280;3781;42.272;22.658;2022-07-19T10:43:10;95179.75;;;33.09;28.18
7480;BME280;3781;42.272;22.658;2022-07-19T10:45:38;95184.09;;;33.62;24.87
7480;BME280;3781;42.272;22.658;2022-07-19T10:48:13;95177.47;;;32.96;24.78
7480;BME280;3781;42.272;22.658;2022-07-19T10:50:49;95169.31;;;33.23;28.94
7480;BME280;3781;42.272;22.658;2022-07-19T10:59:06;95161.91;;;33.50;23.87
7480;BME280;3781;42.272;22.658;2022-07-19T11:01:35;95150.72;;;33.68;28.72
7480;BME280;3781;42.272;22.658;2022-07-19T11:04:23;95157.09;;;34.89;26.06
7480;BME280;3781;42.272;22.658;2022-07-19T11:06:51;95136.25;;;33.99;23.99
7480;BME280;3781;42.272;22.658;2022-07-19T11:09:18;95142.81;;;34.79;28.35
7480;BME280;3781;42.272;22.658;2022-07-19T11:11:46;95154.97;;;35.02;26.02
7480;BME280;3781;42.272;22.658;2022-07-19T11:14:13;95143.78;;;33.92;26.89
7480;BME280;3781;42.272;22.658;2022-07-19T11:16:40;95146.56;;;34.23;26.29
7480;BME280;3781;42.272;22.658;2022-07-19T11:19:08;95152.47;;;34.20;27.08
7480;BME280;3781;42.272;22.658;2022-07-19T11:21:36;95140.78;;;36.14;27.37
7480;BME280;3781;42.272;22.658;2022-07-19T11:24:03;95149.28;;;36.36;24.02
7480;BME280;3781;42.272;22.658;2022-07-19T11:26:35;95146.25;;;36.81;22.01
7480;BME280;3781;42.272;22.658;2022-07-19T11:29:05;95138.69;;;36.78;21.38
7480;BME280;3781;42.272;22.658;2022-07-19T11:31:32;95102.47;;;37.50;23.53
7480;BME280;3781;42.272;22.658;2022-07-19T11:33:59;95119.34;;;35.74;21.24
7480;BME280;3781;42.272;22.658;2022-07-19T11:36:27;95042.44;;;34.42;22.65
7480;BME280;3781;42.272;22.658;2022-07-19T11:38:55;95130.06;;;35.25;25.05
7480;BME280;3781;42.272;22.658;2022-07-19T11:41:26;95088.94;;;35.48;25.30
7480;BME280;3781;42.272;22.658;2022-07-19T11:43:54;95109.00;;;33.96;26.72
7480;BME280;3781;42.272;22.658;2022-07-19T11:46:24;95117.91;;;33.24;27.98
7480;BME280;3781;42.272;22.658;2022-07-19T11:48:55;95120.41;;;32.57;29.37
7480;BME280;3781;42.272;22.658;2022-07-19T11:51:23;95115.72;;;32.43;28.43
7480;BME280;3781;42.272;22.658;2022-07-19T11:53:51;95119.50;;;32.15;28.42
7480;BME280;3781;42.272;22.658;2022-07-19T11:56:20;95123.72;;;33.63;27.45
7480;BME280;3781;42.272;22.658;2022-07-19T11:58:48;95123.84;;;35.24;27.25
7480;BME280;3781;42.272;22.658;2022-07-19T12:01:23;95105.59;;;36.86;23.97
7480;BME280;3781;42.272;22.658;2022-07-19T12:03:54;95113.63;;;35.80;21.51
7480;BME280;3781;42.272;22.658;2022-07-19T12:06:34;95114.66;;;35.25;25.81
7480;BME280;3781;42.272;22.658;2022-07-19T12:09:04;95113.00;;;35.49;25.92
7480;BME280;3781;42.272;22.658;2022-07-19T12:11:38;95094.75;;;35.01;26.50
7480;BME280;3781;42.272;22.658;2022-07-19T12:14:16;95107.00;;;37.08;25.12
7480;BME280;3781;42.272;22.658;2022-07-19T12:16:45;95092.59;;;38.20;21.17
7480;BME280;3781;42.272;22.658;2022-07-19T12:19:12;95105.38;;;38.38;21.31
7480;BME280;3781;42.272;22.658;2022-07-19T12:21:43;95105.41;;;39.30;21.29
7480;BME280;3781;42.272;22.658;2022-07-19T12:24:15;95112.28;;;39.68;19.13
7480;BME280;3781;42.272;22.658;2022-07-19T12:26:44;95103.75;;;40.69;22.81
7480;BME280;3781;42.272;22.658;2022-07-19T12:29:24;95092.41;;;40.97;21.38
7480;BME280;3781;42.272;22.658;2022-07-19T12:31:55;95098.53;;;40.36;19.97
7480;BME280;3781;42.272;22.658;2022-07-19T12:34:22;95101.19;;;38.60;19.26
7480;BME280;3781;42.272;22.658;2022-07-19T12:36:49;95086.44;;;36.78;20.61
7480;BME280;3781;42.272;22.658;2022-07-19T12:39:18;95083.31;;;32.59;24.48
7480;BME280;3781;42.272;22.658;2022-07-19T12:42:03;95065.50;;;32.22;25.55
7480;BME280;3781;42.272;22.658;2022-07-19T12:44:30;95069.34;;;32.31;25.01
7480;BME280;3781;42.272;22.658;2022-07-19T12:46:59;95066.69;;;33.96;25.23
7480;BME280;3781;42.272;22.658;2022-07-19T12:49:40;95068.34;;;35.57;24.64
7480;BME280;3781;42.272;22.658;2022-07-19T12:52:07;95063.38;;;35.15;26.02
7480;BME280;3781;42.272;22.658;2022-07-19T12:54:34;95068.88;;;35.59;26.66
7480;BME280;3781;42.272;22.658;2022-07-19T12:57:00;95064.47;;;35.14;26.82
7480;BME280;3781;42.272;22.658;2022-07-19T12:59:27;95067.16;;;35.14;26.28
7480;BME280;3781;42.272;22.658;2022-07-19T13:02:09;95064.63;;;35.97;24.91
7480;BME280;3781;42.272;22.658;2022-07-19T13:04:37;95061.81;;;38.43;23.54
7480;BME280;3781;42.272;22.658;2022-07-19T13:07:04;95068.97;;;38.02;21.76
7480;BME280;3781;42.272;22.658;2022-07-19T13:09:32;95069.66;;;40.13;20.48
7480;BME280;3781;42.272;22.658;2022-07-19T13:11:59;95032.34;;;40.14;19.50
7480;BME280;3781;42.272;22.658;2022-07-19T13:14:27;95062.91;;;39.75;18.25
7480;BME280;3781;42.272;22.658;2022-07-19T13:16:53;95026.06;;;36.77;20.42
7480;BME280;3781;42.272;22.658;2022-07-19T13:19:22;95045.50;;;36.22;21.71